Estación Meteorológica Peña el Pijo (Robertgarden) [ 11/19/19 10:45:23 CET ]

Fecha Hora Presion(HPa) Temp (°C) Humedad % Rocio (°C) Viento ( m/s) Direccion Lluvia 1Hora(mm) Lluvia 24H(mm) LLuvia Total(mm)
2019-Mar-17 01:01:53 1010.000 4.4 52 -4.7         184.40
2019-Mar-17 02:02:13 1009.700 6.9 47 -3.4         184.40
2019-Mar-17 03:02:07 1009.100 7.9 46 -3.1         184.40
2019-Mar-17 04:05:12 1008.800 7.8 49 -2.3         184.40
2019-Mar-17 05:01:47 1008.600 7.6 53 -1.4         184.40
2019-Mar-17 06:01:39 1008.800 7.8 56 -0.5         184.40
2019-Mar-17 07:01:31 1009.000 6.1 60 -1.1         184.40
2019-Mar-17 08:01:43 1009.200 4.9 62 -1.8         184.40
2019-Mar-17 09:01:36 1009.200 11.2 57 2.9         184.40
2019-Mar-17 10:01:36 1009.500 17.2 40 3.5         184.40
2019-Mar-17 11:01:37 1009.500 18.5 33 1.9         184.40
2019-Mar-17 12:01:51 1009.100 19.9 30 1.8         184.40
2019-Mar-17 13:01:42 1008.900 19.2 30 1.3 1.8 N     184.40
2019-Mar-17 14:01:24 1008.100 20.0 27 0.2 1.2 WNW     184.40
2019-Mar-17 15:01:22 1007.500 20.3 25 -1.0         184.40
2019-Mar-17 16:01:34 1007.300 20.6 24 -0.9 1.9 WNW     184.40
2019-Mar-17 17:01:52 1007.200 19.1 26 -1.1         184.40
2019-Mar-17 18:01:57 1007.200 18.0 28 -0.9         184.40
2019-Mar-17 19:01:53 1007.400 15.4 33 -0.9         184.40
2019-Mar-17 20:01:50 1008.000 12.1 39 -1.5         184.40
2019-Mar-17 21:01:51 1008.700 8.9 46 -2.2         184.40
2019-Mar-17 22:02:08 1008.800 7.1 52 -2.1         184.40
2019-Mar-17 23:02:16 1009.000 6.8 54 -1.9         184.40

Temperatura Máxima:20°    Temperatura Mínima:
Presión Máxima:1010.000 Hpa    Presión Mínima:1007.200 Hpa


Volver